Time;durP1;ratioP1;P1;durP2;ratioP2;P2;SDS_P1;SDS_P2;PMS_P1;PMS_P2;Temp;Humidity;BMP_temperature;BMP_pressure;BME280_temperature;BME280_humidity;BME280_pressure;Samples;Min_cycle;Max_cycle;Signal;HPM_P1;HPM_P2
2020/12/12 00:00:51;;;;;;;12.35;6.82;;;5.80;99.90;;;;;;5031467;28;20041;-53
2020/12/12 00:03:37;;;;;;;11.25;6.10;;;5.90;99.90;;;;;;5030709;28;20116;-55
2020/12/12 00:06:23;;;;;;;15.38;6.68;;;5.90;99.90;;;;;;5030716;28;20037;-54
2020/12/12 00:09:09;;;;;;;12.82;6.63;;;5.70;99.90;;;;;;5031287;28;20045;-53
2020/12/12 00:11:55;;;;;;;11.88;6.30;;;5.80;99.90;;;;;;5031212;28;20041;-53
2020/12/12 00:14:41;;;;;;;13.82;6.68;;;5.80;99.90;;;;;;5030130;28;20100;-55
2020/12/12 00:17:27;;;;;;;10.82;5.80;;;5.80;99.90;;;;;;5030776;28;20037;-54
2020/12/12 00:20:14;;;;;;;10.73;6.40;;;5.90;99.90;;;;;;5031515;28;20157;-54
2020/12/12 00:23:00;;;;;;;12.20;6.55;;;5.90;99.90;;;;;;5017008;28;20038;-53
2020/12/12 00:25:47;;;;;;;10.20;5.75;;;5.90;99.90;;;;;;5031086;28;20092;-55
2020/12/12 00:28:34;;;;;;;14.45;6.75;;;5.90;99.90;;;;;;5031396;28;20128;-54
2020/12/12 00:31:20;;;;;;;12.10;6.03;;;5.90;99.90;;;;;;5031969;28;20550;-52
2020/12/12 00:34:07;;;;;;;12.57;6.10;;;5.90;99.90;;;;;;5029318;28;20030;-54
2020/12/12 00:36:55;;;;;;;12.05;5.80;;;5.90;99.90;;;;;;5030262;28;20087;-53
2020/12/12 00:39:41;;;;;;;11.40;6.40;;;6.10;99.90;;;;;;5030638;28;20057;-54
2020/12/12 00:42:27;;;;;;;14.73;6.38;;;6.00;99.90;;;;;;5031338;28;20045;-54
2020/12/12 00:45:13;;;;;;;12.07;6.28;;;6.00;99.90;;;;;;5031457;28;20064;-54
2020/12/12 00:47:59;;;;;;;52.63;22.88;;;6.00;99.90;;;;;;5029927;28;20474;-55
2020/12/12 00:50:46;;;;;;;37.08;16.50;;;6.00;99.90;;;;;;5030423;28;20045;-55
2020/12/12 00:53:32;;;;;;;14.63;8.18;;;6.10;99.90;;;;;;5034224;28;20041;-55
2020/12/12 00:56:18;;;;;;;11.95;6.30;;;6.40;99.90;;;;;;5035015;28;20040;-55
2020/12/12 00:59:04;;;;;;;13.63;6.10;;;6.30;99.90;;;;;;5034118;28;20044;-55
2020/12/12 01:01:50;;;;;;;13.70;7.03;;;6.30;99.90;;;;;;5033573;28;20037;-54
2020/12/12 01:04:36;;;;;;;12.95;7.00;;;6.20;99.90;;;;;;5034914;28;20099;-55
2020/12/12 01:07:23;;;;;;;16.38;7.15;;;6.20;99.90;;;;;;5033782;28;20605;-55
2020/12/12 01:10:09;;;;;;;14.20;7.13;;;6.10;99.90;;;;;;5035549;28;20405;-56
2020/12/12 01:12:56;;;;;;;17.67;7.78;;;6.20;99.90;;;;;;5034839;28;20123;-55
2020/12/12 01:15:42;;;;;;;13.85;6.93;;;6.10;99.90;;;;;;5020120;28;20095;-51
2020/12/12 01:18:28;;;;;;;13.25;7.03;;;6.00;99.90;;;;;;5033678;28;20410;-52
2020/12/12 01:21:16;;;;;;;12.00;6.57;;;5.90;99.90;;;;;;5034377;28;20409;-53
2020/12/12 01:24:04;;;;;;;11.80;6.00;;;5.90;99.90;;;;;;5034048;28;20541;-54
2020/12/12 01:26:50;;;;;;;13.00;6.30;;;5.80;99.90;;;;;;5032991;28;20489;-53
2020/12/12 01:29:36;;;;;;;12.63;6.30;;;5.80;99.90;;;;;;5033961;28;20478;-53
2020/12/12 01:32:23;;;;;;;13.35;6.10;;;5.70;99.90;;;;;;5033847;28;20033;-54
2020/12/12 01:35:09;;;;;;;12.30;6.68;;;5.70;99.90;;;;;;5034119;28;20045;-55
2020/12/12 01:37:55;;;;;;;13.05;6.00;;;5.70;99.90;;;;;;5033997;28;20030;-55
2020/12/12 01:40:41;;;;;;;15.05;6.72;;;5.60;99.90;;;;;;5033182;28;20612;-56
2020/12/12 01:43:28;;;;;;;15.75;7.00;;;5.60;99.90;;;;;;5033548;28;20116;-56
2020/12/12 01:46:14;;;;;;;16.85;7.57;;;5.70;99.90;;;;;;5033276;28;20037;-55
2020/12/12 01:49:00;;;;;;;15.27;6.78;;;5.70;99.90;;;;;;5033064;28;20442;-55
2020/12/12 01:51:48;;;;;;;12.65;6.47;;;5.70;99.90;;;;;;5032917;28;20064;-53
2020/12/12 01:54:34;;;;;;;11.85;5.68;;;5.80;99.90;;;;;;5034099;28;20052;-56
2020/12/12 01:57:22;;;;;;;10.77;6.07;;;5.90;99.90;;;;;;5034629;28;20037;-55
2020/12/12 02:00:08;;;;;;;15.65;6.93;;;5.80;99.90;;;;;;5033490;28;20049;-55
2020/12/12 02:02:57;;;;;;;14.65;5.97;;;5.80;99.90;;;;;;5031753;28;20036;-54
2020/12/12 02:05:45;;;;;;;13.77;6.63;;;6.00;99.90;;;;;;5032914;28;20491;-56
2020/12/12 02:08:31;;;;;;;10.70;5.72;;;5.90;99.90;;;;;;5033225;28;20037;-56
2020/12/12 02:11:19;;;;;;;11.93;5.93;;;5.80;99.90;;;;;;5018093;28;20042;-52
2020/12/12 02:14:08;;;;;;;14.07;6.53;;;5.80;99.90;;;;;;5032418;28;20041;-55
2020/12/12 02:17:03;;;;;;;14.27;7.15;;;5.80;99.90;;;;;;5019414;28;20080;-56
2020/12/12 02:19:49;;;;;;;11.38;6.30;;;5.90;99.90;;;;;;5032652;28;20037;-56
2020/12/12 02:22:35;;;;;;;11.82;6.55;;;5.90;99.90;;;;;;5032887;28;20076;-56
2020/12/12 02:25:22;;;;;;;12.43;6.15;;;5.80;99.90;;;;;;5032986;28;20092;-55
2020/12/12 02:28:11;;;;;;;12.70;6.05;;;5.70;99.90;;;;;;5032545;28;20071;-52
2020/12/12 02:30:58;;;;;;;11.48;5.95;;;5.70;99.90;;;;;;5033529;28;20026;-54
2020/12/12 02:33:44;;;;;;;10.75;6.05;;;5.80;99.90;;;;;;5032954;28;20042;-56
2020/12/12 02:36:39;;;;;;;14.68;7.63;;;5.80;99.90;;;;;;5032856;28;20041;-56
2020/12/12 02:39:26;;;;;;;11.07;6.10;;;5.80;99.90;;;;;;5032039;28;20057;-56
2020/12/12 02:42:11;;;;;;;12.55;7.07;;;6.00;99.90;;;;;;5032815;28;20041;-55
2020/12/12 02:44:58;;;;;;;11.38;6.15;;;6.00;99.90;;;;;;5032619;28;20069;-56
2020/12/12 02:47:45;;;;;;;13.00;5.88;;;5.90;99.90;;;;;;5032635;28;20045;-55
2020/12/12 02:50:33;;;;;;;11.63;6.25;;;5.90;99.90;;;;;;5032492;28;20048;-56
2020/12/12 02:53:19;;;;;;;12.27;6.00;;;5.80;99.90;;;;;;5032116;28;20033;-56
2020/12/12 02:56:05;;;;;;;17.40;6.43;;;5.80;99.90;;;;;;5032101;28;20417;-55
2020/12/12 02:58:51;;;;;;;12.00;5.55;;;5.80;99.90;;;;;;5032786;28;20410;-55
2020/12/12 03:01:41;;;;;;;13.27;6.90;;;5.90;99.90;;;;;;5032518;28;20049;-55
2020/12/12 03:04:27;;;;;;;12.82;6.38;;;5.80;99.90;;;;;;5031372;28;20026;-55
2020/12/12 03:07:13;;;;;;;11.13;5.80;;;5.90;99.90;;;;;;5032149;28;20073;-55
2020/12/12 03:10:00;;;;;;;12.25;6.00;;;5.90;99.90;;;;;;5032456;28;20115;-56
2020/12/12 03:12:46;;;;;;;12.60;6.63;;;6.00;99.90;;;;;;5032145;28;20042;-55
2020/12/12 03:15:32;;;;;;;17.58;6.60;;;5.90;99.90;;;;;;5031632;28;20095;-56
2020/12/12 03:18:18;;;;;;;12.35;6.15;;;6.00;99.90;;;;;;5032668;28;20143;-56
2020/12/12 03:21:04;;;;;;;12.45;6.22;;;6.20;99.90;;;;;;5031713;28;20037;-55
2020/12/12 03:23:50;;;;;;;12.82;6.05;;;6.10;99.90;;;;;;5031405;28;20410;-55
2020/12/12 03:26:36;;;;;;;13.68;6.50;;;6.00;99.90;;;;;;5031387;28;20474;-56
2020/12/12 03:29:22;;;;;;;12.15;5.93;;;6.00;99.90;;;;;;5031478;28;20048;-55
2020/12/12 03:32:10;;;;;;;11.68;6.63;;;6.00;99.90;;;;;;5030757;28;20401;-54
2020/12/12 03:34:56;;;;;;;12.27;7.00;;;5.90;99.90;;;;;;5030416;28;20029;-54
2020/12/12 03:37:42;;;;;;;11.82;5.93;;;5.90;99.90;;;;;;5031610;28;20507;-55
2020/12/12 03:40:28;;;;;;;12.10;6.70;;;6.00;99.90;;;;;;5030926;28;20062;-53
2020/12/12 03:43:14;;;;;;;12.00;6.28;;;6.20;99.90;;;;;;5032232;28;20042;-53
2020/12/12 03:46:02;;;;;;;11.52;6.20;;;6.30;99.90;;;;;;5032147;28;20029;-53
2020/12/12 03:48:48;;;;;;;10.10;5.93;;;6.40;99.90;;;;;;5030409;28;20030;-52
2020/12/12 03:51:34;;;;;;;13.20;6.32;;;6.30;99.90;;;;;;5031027;28;20119;-55
2020/12/12 03:54:20;;;;;;;13.32;5.93;;;6.10;99.90;;;;;;5031451;28;20029;-54
2020/12/12 03:57:07;;;;;;;11.45;5.82;;;6.10;99.90;;;;;;5031317;28;20049;-52
2020/12/12 03:59:53;;;;;;;10.50;5.38;;;6.10;99.90;;;;;;5030271;28;20049;-55
2020/12/12 04:02:39;;;;;;;12.30;6.25;;;6.10;99.90;;;;;;5030411;28;20068;-53
2020/12/12 04:05:25;;;;;;;12.65;6.25;;;6.00;99.90;;;;;;5031250;28;20040;-54
2020/12/12 04:08:11;;;;;;;13.30;6.43;;;6.00;99.90;;;;;;5031569;28;20044;-53
2020/12/12 04:11:01;;;;;;;14.30;6.60;;;5.90;99.90;;;;;;5031169;28;20051;-55
2020/12/12 04:13:47;;;;;;;15.57;6.50;;;5.90;99.90;;;;;;5029739;28;20041;-56
2020/12/12 04:16:33;;;;;;;11.50;6.55;;;5.90;99.90;;;;;;5030916;28;20036;-54
2020/12/12 04:19:19;;;;;;;12.90;5.82;;;5.90;99.90;;;;;;5031077;28;20540;-54
2020/12/12 04:22:05;;;;;;;18.92;6.55;;;6.00;99.90;;;;;;5030471;28;20565;-54
2020/12/12 04:24:51;;;;;;;12.02;5.70;;;5.90;99.90;;;;;;5030263;28;20029;-53
2020/12/12 04:27:37;;;;;;;13.30;6.85;;;6.00;99.90;;;;;;5029327;28;20116;-53
2020/12/12 04:30:23;;;;;;;12.65;6.63;;;6.00;99.90;;;;;;5031002;28;20041;-55
2020/12/12 04:33:09;;;;;;;13.63;6.78;;;6.10;99.90;;;;;;5029781;28;20038;-52
2020/12/12 04:35:55;;;;;;;12.95;6.25;;;6.20;99.90;;;;;;5031871;28;20518;-53
2020/12/12 04:38:42;;;;;;;14.15;6.40;;;6.20;99.90;;;;;;5031350;28;20398;-53
2020/12/12 04:41:30;;;;;;;17.17;7.10;;;6.00;99.90;;;;;;5029746;28;20057;-54
2020/12/12 04:44:16;;;;;;;11.35;5.85;;;6.00;99.90;;;;;;5015730;28;20132;-51
2020/12/12 04:47:03;;;;;;;14.45;6.97;;;5.80;99.90;;;;;;5015096;28;20469;-53
2020/12/12 04:49:49;;;;;;;13.85;6.57;;;5.90;99.90;;;;;;5029135;28;20127;-52
2020/12/12 04:52:41;;;;;;;10.90;6.38;;;6.00;99.90;;;;;;5029509;28;20048;-55
2020/12/12 04:55:28;;;;;;;16.65;6.80;;;6.00;99.90;;;;;;5030752;28;20046;-55
2020/12/12 04:58:24;;;;;;;15.68;7.68;;;6.20;99.90;;;;;;5015747;28;20494;-52
2020/12/12 05:01:10;;;;;;;17.58;7.75;;;6.30;99.90;;;;;;5029806;28;20043;-54
2020/12/12 05:03:57;;;;;;;17.48;7.80;;;6.10;99.90;;;;;;5015318;28;20044;-53
2020/12/12 05:06:43;;;;;;;13.73;7.30;;;5.90;99.90;;;;;;5030894;28;20037;-54
2020/12/12 05:09:29;;;;;;;15.25;7.32;;;6.00;99.90;;;;;;5030486;28;20061;-56
2020/12/12 05:12:15;;;;;;;15.90;7.25;;;6.00;99.90;;;;;;5030960;28;20076;-56
2020/12/12 05:15:02;;;;;;;17.30;7.95;;;6.20;99.90;;;;;;5015264;28;20092;-54
2020/12/12 05:17:48;;;;;;;14.60;7.07;;;6.10;99.90;;;;;;5030011;28;20040;-55
2020/12/12 05:20:35;;;;;;;14.35;6.90;;;6.10;99.90;;;;;;5030074;28;20075;-57
2020/12/12 05:23:25;;;;;;;17.45;7.93;;;6.00;99.90;;;;;;5030576;28;20120;-56
2020/12/12 05:26:12;;;;;;;15.38;7.15;;;6.00;99.90;;;;;;5029595;28;20064;-54
2020/12/12 05:29:00;;;;;;;14.80;7.47;;;5.90;99.90;;;;;;5029691;28;20413;-52
2020/12/12 05:31:49;;;;;;;15.25;7.35;;;5.80;99.90;;;;;;5029979;28;20040;-53
2020/12/12 05:34:35;;;;;;;17.55;7.85;;;5.80;99.90;;;;;;5016651;28;20041;-55
2020/12/12 05:37:21;;;;;;;17.98;7.78;;;5.80;99.90;;;;;;5030501;28;20597;-51
2020/12/12 05:40:07;;;;;;;14.52;6.47;;;5.70;99.90;;;;;;5033836;28;20084;-55
2020/12/12 05:42:54;;;;;;;17.27;7.70;;;5.80;99.90;;;;;;5033100;28;20402;-54
2020/12/12 05:45:41;;;;;;;16.35;7.70;;;5.80;99.90;;;;;;5033628;28;20041;-55
2020/12/12 05:48:28;;;;;;;16.23;6.43;;;5.90;99.90;;;;;;5032533;28;20084;-55
2020/12/12 05:51:15;;;;;;;17.75;7.63;;;5.80;99.90;;;;;;5032210;28;20520;-55
2020/12/12 05:54:01;;;;;;;15.02;6.88;;;5.80;99.90;;;;;;5017914;28;20048;-52
2020/12/12 05:56:47;;;;;;;17.52;7.63;;;5.80;99.90;;;;;;5032556;28;20119;-54
2020/12/12 05:59:34;;;;;;;14.45;7.40;;;5.90;99.90;;;;;;5013481;28;20037;-55
2020/12/12 06:02:25;;;;;;;16.63;6.45;;;5.90;99.90;;;;;;5019849;28;20368;-54
2020/12/12 06:05:18;;;;;;;;;;;5.90;99.90;;;;;;5032753;28;20077;-54
2020/12/12 06:08:12;;;;;;;15.68;7.13;;;5.90;99.90;;;;;;5033947;28;20262;-53
2020/12/12 06:11:04;;;;;;;14.40;7.32;;;5.90;99.90;;;;;;5019119;28;20025;-56
2020/12/12 06:13:56;;;;;;;14.55;6.63;;;6.00;99.90;;;;;;5031951;28;20033;-57
2020/12/12 06:16:42;;;;;;;18.38;7.10;;;6.00;99.90;;;;;;5019703;28;20045;-56
2020/12/12 06:19:36;;;;;;;11.80;6.15;;;6.00;99.90;;;;;;5033683;28;20064;-56
2020/12/12 06:22:22;;;;;;;15.95;6.75;;;6.00;99.90;;;;;;5032361;28;20115;-57
2020/12/12 06:25:14;;;;;;;14.50;7.20;;;6.00;99.90;;;;;;5033682;28;20107;-56
2020/12/12 06:28:05;;;;;;;14.73;7.40;;;6.00;99.90;;;;;;5032179;28;20394;-52
2020/12/12 06:30:55;;;;;;;12.95;6.70;;;6.10;99.90;;;;;;5017423;28;20108;-57
2020/12/12 06:33:53;;;;;;;12.60;7.13;;;6.00;99.90;;;;;;5018607;28;20434;-57
2020/12/12 06:36:47;;;;;;;13.38;7.30;;;6.00;99.90;;;;;;5032807;28;20568;-56
2020/12/12 06:39:54;;;;;;;14.30;7.20;;;6.00;99.90;;;;;;5031913;28;20053;-57
2020/12/12 06:42:44;;;;;;;14.90;7.00;;;6.00;99.90;;;;;;5034157;28;20049;-55
2020/12/12 06:45:30;;;;;;;17.17;6.97;;;6.00;99.90;;;;;;5032332;28;20136;-56
2020/12/12 06:48:27;;;;;;;13.90;6.97;;;6.00;99.90;;;;;;5031325;28;20041;-56
2020/12/12 06:51:13;;;;;;;16.13;7.47;;;6.00;99.90;;;;;;5032004;28;20080;-56
2020/12/12 06:54:08;;;;;;;12.65;6.97;;;6.00;99.90;;;;;;5032467;28;20486;-56
2020/12/12 06:56:54;;;;;;;13.23;7.07;;;6.10;99.90;;;;;;5032570;28;20120;-56
2020/12/12 06:59:40;;;;;;;12.55;6.63;;;6.00;99.90;;;;;;5018149;28;20037;-54
2020/12/12 07:02:32;;;;;;;19.83;7.63;;;6.00;99.90;;;;;;5033115;28;20040;-55
2020/12/12 07:05:21;;;;;;;13.63;7.03;;;6.10;99.90;;;;;;5030881;28;20039;-56
2020/12/12 07:08:10;;;;;;;13.98;7.30;;;6.00;99.90;;;;;;5032206;28;20490;-56
2020/12/12 07:10:56;;;;;;;12.45;6.43;;;6.10;99.90;;;;;;5031598;28;20481;-57
2020/12/12 07:13:42;;;;;;;11.55;6.38;;;6.10;99.90;;;;;;5032679;28;20402;-54
2020/12/12 07:16:29;;;;;;;13.57;6.82;;;6.10;99.90;;;;;;5031317;28;20402;-54
2020/12/12 07:19:18;;;;;;;12.98;7.28;;;6.10;99.90;;;;;;5016663;28;20041;-53
2020/12/12 07:22:10;;;;;;;12.35;6.63;;;6.20;99.90;;;;;;5031947;28;20402;-53
2020/12/12 07:24:58;;;;;;;13.18;6.70;;;6.30;99.90;;;;;;5031293;28;20045;-54
2020/12/12 07:27:44;;;;;;;12.27;6.65;;;6.30;99.90;;;;;;5017838;28;20040;-51
2020/12/12 07:30:31;;;;;;;13.73;6.78;;;6.30;99.90;;;;;;5030939;28;20038;-54
2020/12/12 07:33:17;;;;;;;12.80;6.50;;;6.40;99.90;;;;;;5030892;28;20481;-54
2020/12/12 07:36:03;;;;;;;14.73;7.45;;;6.40;99.90;;;;;;5031378;28;20475;-53
2020/12/12 07:38:49;;;;;;;14.05;7.25;;;6.50;99.90;;;;;;5031469;28;20041;-54
2020/12/12 07:41:45;;;;;;;14.55;7.03;;;6.50;99.90;;;;;;5031883;28;20057;-51
2020/12/12 07:44:32;;;;;;;14.30;7.40;;;6.50;99.90;;;;;;5032820;28;20173;-54
2020/12/12 07:47:18;;;;;;;13.05;6.90;;;6.40;99.90;;;;;;5016745;28;20052;-52
2020/12/12 07:50:06;;;;;;;13.73;7.45;;;6.40;99.90;;;;;;5031891;28;20033;-54
2020/12/12 07:52:52;;;;;;;15.38;7.57;;;6.50;99.90;;;;;;5030219;28;20091;-55
2020/12/12 07:55:43;;;;;;;18.08;8.20;;;6.50;99.90;;;;;;5030983;28;20706;-50
2020/12/12 07:58:31;;;;;;;16.25;7.47;;;6.50;99.90;;;;;;5030742;28;20072;-49
2020/12/12 08:01:24;;;;;;;18.17;9.23;;;6.50;99.90;;;;;;5031144;28;20045;-54
2020/12/12 08:04:19;;;;;;;15.82;8.75;;;6.50;99.90;;;;;;5031154;28;20112;-55
2020/12/12 08:07:20;;;;;;;16.63;9.05;;;6.40;99.90;;;;;;5030810;28;20463;-53
2020/12/12 08:10:08;;;;;;;17.63;8.70;;;6.40;99.90;;;;;;5017700;28;20483;-54
2020/12/12 08:12:54;;;;;;;20.52;9.73;;;6.60;99.90;;;;;;5030687;28;20471;-55
2020/12/12 08:15:46;;;;;;;21.17;9.45;;;6.70;99.90;;;;;;5030268;28;20577;-54
2020/12/12 08:18:32;;;;;;;19.15;9.07;;;6.60;99.90;;;;;;5004534;28;20029;-55
2020/12/12 08:21:20;;;;;;;16.75;8.57;;;6.50;99.90;;;;;;5030275;28;20026;-55
2020/12/12 08:24:06;;;;;;;20.58;9.75;;;6.60;99.90;;;;;;5030061;28;20088;-54
2020/12/12 08:26:52;;;;;;;21.58;9.80;;;6.60;99.90;;;;;;5017188;28;20124;-59
2020/12/12 08:29:42;;;;;;;18.92;8.80;;;6.60;99.90;;;;;;5031380;28;20497;-55
2020/12/12 08:32:35;;;;;;;19.33;9.82;;;6.60;99.90;;;;;;5017129;28;20037;-55
2020/12/12 08:35:25;;;;;;;22.98;9.75;;;6.50;99.90;;;;;;5015948;28;20372;-54
2020/12/12 08:38:12;;;;;;;21.40;9.52;;;6.40;99.90;;;;;;5029668;28;20053;-54
2020/12/12 08:40:58;;;;;;;20.00;9.00;;;6.40;99.90;;;;;;5031125;28;20045;-55
2020/12/12 08:43:45;;;;;;;19.15;9.20;;;6.40;99.90;;;;;;5031224;28;20128;-51
2020/12/12 08:46:32;;;;;;;21.85;10.30;;;6.50;99.90;;;;;;5030094;28;20132;-53
2020/12/12 08:49:18;;;;;;;24.27;10.75;;;6.40;99.90;;;;;;5030276;28;20038;-53
2020/12/12 08:52:04;;;;;;;19.48;9.63;;;6.50;99.90;;;;;;5030625;28;20030;-54
2020/12/12 08:55:00;;;;;;;24.92;11.43;;;6.40;99.90;;;;;;5031272;28;20107;-53
2020/12/12 08:58:01;;;;;;;31.30;10.98;;;6.40;99.90;;;;;;5030427;28;20057;-53
2020/12/12 09:00:47;;;;;;;20.83;9.98;;;6.30;99.90;;;;;;5029261;28;20087;-59
2020/12/12 09:03:33;;;;;;;23.27;10.18;;;6.20;99.90;;;;;;5030071;28;20042;-69
2020/12/12 09:06:19;;;;;;;24.05;11.23;;;6.20;99.90;;;;;;5030533;28;20112;-66
2020/12/12 09:09:14;;;;;;;26.45;10.43;;;6.20;99.90;;;;;;5015087;28;20056;-60
2020/12/12 09:12:10;;;;;;;23.98;11.00;;;6.10;99.90;;;;;;5030720;28;20037;-59
2020/12/12 09:14:56;;;;;;;23.88;10.98;;;6.20;99.90;;;;;;5031272;28;20037;-56
2020/12/12 09:17:42;;;;;;;29.65;11.77;;;6.10;99.90;;;;;;5014298;28;20038;-57
2020/12/12 09:20:28;;;;;;;22.60;10.13;;;6.10;99.90;;;;;;5014908;28;20034;-56
2020/12/12 09:23:14;;;;;;;30.25;12.23;;;6.10;99.90;;;;;;5014864;28;20121;-57
2020/12/12 09:26:00;;;;;;;26.48;11.30;;;6.10;99.90;;;;;;5015243;28;20034;-58
2020/12/12 09:28:47;;;;;;;24.60;11.85;;;6.10;99.90;;;;;;5013804;28;20427;-54
2020/12/12 09:31:33;;;;;;;25.30;11.60;;;6.10;99.90;;;;;;5015801;28;20569;-56
2020/12/12 09:34:20;;;;;;;27.50;10.82;;;6.10;99.90;;;;;;5013652;28;20128;-56
2020/12/12 09:37:06;;;;;;;26.95;11.13;;;6.20;99.90;;;;;;4999385;28;20085;-57
2020/12/12 09:39:52;;;;;;;26.13;11.68;;;6.20;99.90;;;;;;5014367;28;20116;-57
2020/12/12 09:42:39;;;;;;;22.42;11.68;;;6.30;99.90;;;;;;5000001;28;20070;-57
2020/12/12 09:45:25;;;;;;;29.83;11.27;;;6.40;99.90;;;;;;5024837;28;20041;-57
2020/12/12 09:48:12;;;;;;;23.38;10.15;;;6.50;99.90;;;;;;5033595;28;20040;-57
2020/12/12 09:50:58;;;;;;;20.05;9.38;;;6.60;99.90;;;;;;5032825;28;20044;-57
2020/12/12 09:53:46;;;;;;;24.35;11.73;;;6.40;99.90;;;;;;5034704;28;20478;-57
2020/12/12 09:56:33;;;;;;;23.13;9.77;;;6.50;99.90;;;;;;5033704;28;20038;-56
2020/12/12 09:59:20;;;;;;;22.95;9.25;;;6.50;99.90;;;;;;5033942;28;20033;-57
2020/12/12 10:02:07;;;;;;;23.00;9.63;;;6.60;99.90;;;;;;5033321;28;20402;-56
2020/12/12 10:04:54;;;;;;;21.45;9.20;;;6.60;99.90;;;;;;5033930;28;20033;-50
2020/12/12 10:07:40;;;;;;;21.65;9.32;;;6.80;99.90;;;;;;5032772;28;20037;-55
2020/12/12 10:10:28;;;;;;;24.65;9.45;;;6.70;99.90;;;;;;5017853;28;20041;-56
2020/12/12 10:13:15;;;;;;;24.75;10.00;;;6.80;99.90;;;;;;5034183;28;20172;-54
2020/12/12 10:16:01;;;;;;;19.73;10.05;;;6.70;99.90;;;;;;5033707;28;20141;-54
2020/12/12 10:18:48;;;;;;;23.83;11.07;;;6.70;99.90;;;;;;5033461;28;20037;-56
2020/12/12 10:21:34;;;;;;;20.02;9.48;;;6.60;99.90;;;;;;5033265;28;20041;-54
2020/12/12 10:24:21;;;;;;;19.42;9.48;;;6.60;99.90;;;;;;5032325;28;20033;-57
2020/12/12 10:27:07;;;;;;;19.92;9.70;;;6.70;99.90;;;;;;5033061;28;20048;-57
2020/12/12 10:29:54;;;;;;;18.50;9.40;;;6.60;99.90;;;;;;5032798;28;20041;-53
2020/12/12 10:32:41;;;;;;;16.13;8.38;;;6.70;99.90;;;;;;5034025;28;20069;-55
2020/12/12 10:35:30;;;;;;;19.95;8.15;;;6.80;99.90;;;;;;5033279;28;20041;-57
2020/12/12 10:38:16;;;;;;;21.40;9.75;;;6.90;99.90;;;;;;5032783;28;20099;-56
2020/12/12 10:41:11;;;;;;;16.33;8.35;;;6.90;99.90;;;;;;5032812;28;20057;-55
2020/12/12 10:43:58;;;;;;;15.23;8.10;;;6.90;99.90;;;;;;5018455;28;20042;-55
2020/12/12 10:46:45;;;;;;;16.02;7.38;;;6.80;99.90;;;;;;5032066;28;20037;-53
2020/12/12 10:49:31;;;;;;;19.23;8.68;;;6.80;99.90;;;;;;5033159;28;20033;-57
2020/12/12 10:52:17;;;;;;;19.13;9.40;;;6.70;99.90;;;;;;5033036;28;20044;-56
2020/12/12 10:55:05;;;;;;;18.52;9.13;;;6.80;99.90;;;;;;5032267;28;20038;-56
2020/12/12 10:57:52;;;;;;;16.67;8.73;;;6.70;99.90;;;;;;5033483;28;20044;-53
2020/12/12 11:00:50;;;;;;;16.35;8.82;;;6.80;99.90;;;;;;5033707;28;20034;-54
2020/12/12 11:03:37;;;;;;;20.85;9.55;;;6.70;99.90;;;;;;5032081;28;20041;-56
2020/12/12 11:06:23;;;;;;;16.90;8.63;;;6.80;99.90;;;;;;5017087;28;20041;-56
2020/12/12 11:09:09;;;;;;;17.27;9.57;;;6.80;99.90;;;;;;5032517;28;20048;-56
2020/12/12 11:11:55;;;;;;;17.13;8.27;;;6.90;99.90;;;;;;5032619;28;20119;-57
2020/12/12 11:14:42;;;;;;;16.13;7.88;;;7.00;99.90;;;;;;5031942;28;20589;-57
2020/12/12 11:17:28;;;;;;;22.02;9.02;;;6.90;99.90;;;;;;5031759;28;20171;-53
2020/12/12 11:20:15;;;;;;;19.60;9.38;;;6.90;99.90;;;;;;5030418;28;20467;-57
2020/12/12 11:23:01;;;;;;;19.02;9.23;;;6.90;99.90;;;;;;5032037;28;20072;-55
2020/12/12 11:25:47;;;;;;;19.63;9.35;;;7.00;99.90;;;;;;5032330;28;20585;-55
2020/12/12 11:28:33;;;;;;;17.98;8.45;;;7.10;99.90;;;;;;5031433;28;20030;-57
2020/12/12 11:31:22;;;;;;;13.82;7.95;;;7.10;99.90;;;;;;5031517;28;20053;-57
2020/12/12 11:34:17;;;;;;;16.35;8.20;;;7.10;99.90;;;;;;5031416;28;20041;-58
2020/12/12 11:40:22;;;;;;;15.15;8.38;;;7.10;99.90;;;;;;5030089;28;20482;-57
2020/12/12 11:49:08;;;;;;;13.57;7.32;;;7.10;99.90;;;;;;5012738;28;20033;-55
2020/12/12 11:51:54;;;;;;;14.73;7.45;;;7.10;99.90;;;;;;5011366;28;20034;-57
2020/12/12 11:54:40;;;;;;;14.02;7.45;;;7.00;99.90;;;;;;5010892;28;20042;-57
2020/12/12 11:57:26;;;;;;;15.07;7.85;;;7.10;99.90;;;;;;5012551;28;20470;-56
2020/12/12 12:00:13;;;;;;;18.17;7.72;;;7.00;99.90;;;;;;5010731;28;20123;-58
2020/12/12 12:02:59;;;;;;;16.27;8.73;;;7.00;99.90;;;;;;5012218;28;20069;-58
2020/12/12 12:05:48;;;;;;;14.38;7.40;;;7.00;99.90;;;;;;5011604;28;20497;-56
2020/12/12 12:08:42;;;;;;;12.38;7.03;;;7.10;99.90;;;;;;5010333;28;20069;-54
2020/12/12 12:11:30;;;;;;;16.35;7.57;;;7.10;99.90;;;;;;5011440;28;20030;-56
2020/12/12 12:14:17;;;;;;;18.73;8.10;;;7.00;99.90;;;;;;5011730;28;20034;-57
2020/12/12 12:17:03;;;;;;;16.75;7.93;;;7.20;99.90;;;;;;5011272;28;20128;-58
2020/12/12 12:19:50;;;;;;;18.98;8.35;;;7.00;99.90;;;;;;5010556;28;20046;-58
2020/12/12 12:22:36;;;;;;;18.58;9.27;;;7.10;99.90;;;;;;4996075;28;20033;-55
2020/12/12 12:25:23;;;;;;;15.52;8.02;;;7.10;99.90;;;;;;5012318;28;20092;-57
2020/12/12 12:28:09;;;;;;;20.42;9.63;;;7.00;99.90;;;;;;5010338;28;20134;-57
2020/12/12 12:30:55;;;;;;;19.17;9.30;;;7.00;99.90;;;;;;5011496;28;20376;-57
2020/12/12 12:33:42;;;;;;;16.45;9.52;;;6.90;99.90;;;;;;5010419;28;20034;-58
2020/12/12 12:36:30;;;;;;;19.27;9.35;;;7.00;99.90;;;;;;5011513;28;20042;-55
2020/12/12 12:39:17;;;;;;;24.83;11.32;;;6.90;99.90;;;;;;5011208;28;20054;-58
2020/12/12 12:42:04;;;;;;;16.85;9.15;;;7.00;99.90;;;;;;5010233;28;20057;-58
2020/12/12 12:44:50;;;;;;;18.50;9.63;;;6.90;99.90;;;;;;5011998;28;20065;-57
2020/12/12 12:47:36;;;;;;;22.45;9.20;;;7.00;99.90;;;;;;5011325;28;20056;-53
2020/12/12 12:50:33;;;;;;;19.58;10.02;;;7.00;99.90;;;;;;5015342;28;20034;-57
2020/12/12 12:53:19;;;;;;;21.67;11.13;;;6.90;99.90;;;;;;5015124;28;20108;-57
2020/12/12 12:56:06;;;;;;;27.13;9.73;;;6.80;99.90;;;;;;5014030;28;20030;-54
2020/12/12 12:58:54;;;;;;;21.08;9.85;;;6.80;99.90;;;;;;5000681;28;20121;-58
2020/12/12 13:01:41;;;;;;;21.67;9.70;;;6.80;99.90;;;;;;5013586;28;20034;-58
2020/12/12 13:04:27;;;;;;;20.70;9.38;;;6.80;99.90;;;;;;5014594;28;20989;-59
2020/12/12 13:07:14;;;;;;;19.35;9.52;;;6.80;99.90;;;;;;5015498;28;20041;-57
2020/12/12 13:10:00;;;;;;;20.60;9.85;;;6.80;99.90;;;;;;5014905;28;20068;-56
2020/12/12 13:12:48;;;;;;;20.58;10.75;;;6.90;99.90;;;;;;5013346;28;20453;-57
2020/12/12 13:15:34;;;;;;;20.48;10.75;;;6.90;99.90;;;;;;5014914;28;20041;-57
2020/12/12 13:18:27;;;;;;;20.77;10.57;;;6.90;99.90;;;;;;5014147;28;20502;-57
2020/12/12 13:21:21;;;;;;;24.67;11.98;;;6.90;99.90;;;;;;4999212;28;20095;-51
2020/12/12 13:24:07;;;;;;;20.42;10.65;;;6.80;99.90;;;;;;5012840;28;20034;-59
2020/12/12 13:26:57;;;;;;;24.00;11.63;;;6.90;99.90;;;;;;5014790;28;20041;-57
2020/12/12 13:32:48;;;;;;;21.40;11.10;;;6.90;99.90;;;;;;5014343;28;20402;-56
2020/12/12 13:35:34;;;;;;;23.45;10.95;;;7.00;99.90;;;;;;5014260;28;20103;-56
2020/12/12 13:38:20;;;;;;;21.83;10.90;;;7.10;99.90;;;;;;5015143;28;20096;-59
2020/12/12 13:41:07;;;;;;;20.10;10.50;;;7.00;99.90;;;;;;4999257;28;20058;-58
2020/12/12 13:43:54;;;;;;;18.67;10.10;;;7.10;99.90;;;;;;5014060;28;20398;-58
2020/12/12 13:46:40;;;;;;;14.38;9.18;;;7.00;99.90;;;;;;5013666;28;20045;-57
2020/12/12 13:49:26;;;;;;;21.50;10.63;;;7.00;99.90;;;;;;5020904;28;20041;-57
2020/12/12 13:52:12;;;;;;;20.60;10.15;;;7.00;99.90;;;;;;5020305;28;20037;-58
2020/12/12 13:54:58;;;;;;;22.17;10.32;;;6.90;99.90;;;;;;5035153;28;20100;-58
2020/12/12 13:57:44;;;;;;;21.40;11.45;;;6.90;99.90;;;;;;5034553;28;20069;-58
2020/12/12 14:00:31;;;;;;;21.83;11.13;;;6.90;99.90;;;;;;5031897;28;20045;-56
2020/12/12 14:03:17;;;;;;;20.40;11.60;;;7.00;99.90;;;;;;5034117;28;20128;-56
2020/12/12 14:06:07;;;;;;;21.33;10.38;;;7.10;99.90;;;;;;5032906;28;20049;-57
2020/12/12 14:21:22;;;;;;;24.60;10.40;;;7.20;99.90;;;;;;5032621;28;20128;-56
2020/12/12 14:24:07;;;;;;;21.90;10.95;;;7.20;99.90;;;;;;5032439;28;20430;-57
2020/12/12 14:30:00;;;;;;;19.00;10.05;;;7.20;99.90;;;;;;5032312;28;20065;-58
2020/12/12 14:32:46;;;;;;;19.27;10.25;;;7.20;99.90;;;;;;5032801;28;20048;-56
2020/12/12 14:35:33;;;;;;;22.08;10.85;;;7.10;99.90;;;;;;5033017;28;20347;-54
2020/12/12 14:38:19;;;;;;;23.83;12.95;;;6.90;99.90;;;;;;5032593;28;20041;-57
2020/12/12 14:41:05;;;;;;;24.08;11.15;;;6.90;99.90;;;;;;5032855;28;20540;-55
2020/12/12 14:43:52;;;;;;;23.75;10.95;;;6.90;99.90;;;;;;5031456;28;20033;-57
2020/12/12 14:46:37;;;;;;;20.45;10.55;;;6.90;99.90;;;;;;5032850;28;20084;-56
2020/12/12 14:49:24;;;;;;;23.55;11.60;;;6.80;99.90;;;;;;5033573;28;20037;-58
2020/12/12 14:52:10;;;;;;;23.85;12.52;;;6.90;99.90;;;;;;5031416;28;20041;-56
2020/12/12 14:54:56;;;;;;;23.02;12.38;;;6.80;99.90;;;;;;5031999;28;20041;-58
2020/12/12 14:57:43;;;;;;;23.77;11.70;;;6.90;99.90;;;;;;5032398;28;20037;-56